sensor_id;sensor_type;location;lat;lon;timestamp;P1;durP1;ratioP1;P2;durP2;ratioP2
11797;SDS011;5956;51.428;6.682;2023-05-14T00:01:21;13.30;;;12.00;;
11797;SDS011;5956;51.428;6.682;2023-05-14T00:03:47;11.70;;;10.60;;
11797;SDS011;5956;51.428;6.682;2023-05-14T00:06:14;12.23;;;10.00;;
11797;SDS011;5956;51.428;6.682;2023-05-14T00:08:41;10.67;;;9.87;;
11797;SDS011;5956;51.428;6.682;2023-05-14T00:11:08;11.13;;;10.13;;
11797;SDS011;5956;51.428;6.682;2023-05-14T00:13:34;11.43;;;10.53;;
11797;SDS011;5956;51.428;6.682;2023-05-14T00:16:01;10.97;;;10.17;;
11797;SDS011;5956;51.428;6.682;2023-05-14T00:18:27;12.90;;;11.60;;
11797;SDS011;5956;51.428;6.682;2023-05-14T00:20:54;13.20;;;11.83;;
11797;SDS011;5956;51.428;6.682;2023-05-14T00:23:20;12.13;;;11.13;;
11797;SDS011;5956;51.428;6.682;2023-05-14T00:25:48;10.97;;;10.07;;
11797;SDS011;5956;51.428;6.682;2023-05-14T00:28:15;11.60;;;10.63;;
11797;SDS011;5956;51.428;6.682;2023-05-14T00:30:41;12.07;;;10.97;;
11797;SDS011;5956;51.428;6.682;2023-05-14T00:33:08;11.40;;;10.40;;
11797;SDS011;5956;51.428;6.682;2023-05-14T00:35:34;10.50;;;9.60;;
11797;SDS011;5956;51.428;6.682;2023-05-14T00:38:01;11.03;;;10.23;;
11797;SDS011;5956;51.428;6.682;2023-05-14T00:40:27;11.70;;;10.70;;
11797;SDS011;5956;51.428;6.682;2023-05-14T00:42:55;12.10;;;11.10;;
11797;SDS011;5956;51.428;6.682;2023-05-14T00:45:21;11.67;;;10.77;;
11797;SDS011;5956;51.428;6.682;2023-05-14T00:47:48;11.60;;;10.73;;
11797;SDS011;5956;51.428;6.682;2023-05-14T00:50:15;12.80;;;11.80;;
11797;SDS011;5956;51.428;6.682;2023-05-14T00:52:42;14.50;;;13.30;;
11797;SDS011;5956;51.428;6.682;2023-05-14T00:55:08;14.23;;;12.90;;
11797;SDS011;5956;51.428;6.682;2023-05-14T00:57:37;13.33;;;12.23;;
11797;SDS011;5956;51.428;6.682;2023-05-14T01:00:07;13.97;;;12.77;;
11797;SDS011;5956;51.428;6.682;2023-05-14T01:02:33;14.10;;;12.80;;
11797;SDS011;5956;51.428;6.682;2023-05-14T01:05:00;13.07;;;11.90;;
11797;SDS011;5956;51.428;6.682;2023-05-14T01:07:29;12.83;;;11.73;;
11797;SDS011;5956;51.428;6.682;2023-05-14T01:09:57;14.00;;;12.80;;
11797;SDS011;5956;51.428;6.682;2023-05-14T01:12:26;13.53;;;12.37;;
11797;SDS011;5956;51.428;6.682;2023-05-14T01:14:56;12.10;;;10.87;;
11797;SDS011;5956;51.428;6.682;2023-05-14T01:17:25;12.17;;;11.00;;
11797;SDS011;5956;51.428;6.682;2023-05-14T01:19:53;12.30;;;11.17;;
11797;SDS011;5956;51.428;6.682;2023-05-14T01:22:21;11.77;;;10.47;;
11797;SDS011;5956;51.428;6.682;2023-05-14T01:24:48;11.13;;;10.13;;
11797;SDS011;5956;51.428;6.682;2023-05-14T01:27:16;11.37;;;10.27;;
11797;SDS011;5956;51.428;6.682;2023-05-14T01:29:53;11.80;;;10.70;;
11797;SDS011;5956;51.428;6.682;2023-05-14T01:32:21;11.50;;;10.47;;
11797;SDS011;5956;51.428;6.682;2023-05-14T01:34:48;11.23;;;10.43;;
11797;SDS011;5956;51.428;6.682;2023-05-14T01:37:16;12.87;;;11.87;;
11797;SDS011;5956;51.428;6.682;2023-05-14T01:39:44;13.53;;;12.43;;
11797;SDS011;5956;51.428;6.682;2023-05-14T01:42:11;12.33;;;11.33;;
11797;SDS011;5956;51.428;6.682;2023-05-14T01:44:37;13.47;;;12.13;;
11797;SDS011;5956;51.428;6.682;2023-05-14T01:47:04;12.63;;;11.63;;
11797;SDS011;5956;51.428;6.682;2023-05-14T01:49:31;15.30;;;13.70;;
11797;SDS011;5956;51.428;6.682;2023-05-14T01:51:57;13.27;;;11.73;;
11797;SDS011;5956;51.428;6.682;2023-05-14T01:54:23;13.73;;;12.63;;
11797;SDS011;5956;51.428;6.682;2023-05-14T01:56:51;11.87;;;10.77;;
11797;SDS011;5956;51.428;6.682;2023-05-14T01:59:18;12.37;;;11.37;;
11797;SDS011;5956;51.428;6.682;2023-05-14T02:01:44;13.27;;;12.17;;
11797;SDS011;5956;51.428;6.682;2023-05-14T02:04:11;12.47;;;11.40;;
11797;SDS011;5956;51.428;6.682;2023-05-14T02:06:38;11.40;;;10.50;;
11797;SDS011;5956;51.428;6.682;2023-05-14T02:09:05;12.17;;;10.67;;
11797;SDS011;5956;51.428;6.682;2023-05-14T02:11:31;12.63;;;11.57;;
11797;SDS011;5956;51.428;6.682;2023-05-14T02:13:59;12.00;;;11.10;;
11797;SDS011;5956;51.428;6.682;2023-05-14T02:16:25;11.57;;;10.67;;
11797;SDS011;5956;51.428;6.682;2023-05-14T02:18:52;12.00;;;11.00;;
11797;SDS011;5956;51.428;6.682;2023-05-14T02:21:18;12.00;;;11.00;;
11797;SDS011;5956;51.428;6.682;2023-05-14T02:23:45;12.60;;;11.50;;
11797;SDS011;5956;51.428;6.682;2023-05-14T02:26:13;12.63;;;11.53;;
11797;SDS011;5956;51.428;6.682;2023-05-14T02:28:40;10.90;;;10.00;;
11797;SDS011;5956;51.428;6.682;2023-05-14T02:31:07;11.57;;;10.67;;
11797;SDS011;5956;51.428;6.682;2023-05-14T02:33:34;13.03;;;11.87;;
11797;SDS011;5956;51.428;6.682;2023-05-14T02:36:00;11.57;;;10.67;;
11797;SDS011;5956;51.428;6.682;2023-05-14T02:38:27;12.03;;;10.90;;
11797;SDS011;5956;51.428;6.682;2023-05-14T02:40:53;12.97;;;11.77;;
11797;SDS011;5956;51.428;6.682;2023-05-14T02:43:20;12.33;;;11.20;;
11797;SDS011;5956;51.428;6.682;2023-05-14T02:45:46;11.87;;;10.57;;
11797;SDS011;5956;51.428;6.682;2023-05-14T02:48:14;11.17;;;10.37;;
11797;SDS011;5956;51.428;6.682;2023-05-14T02:50:41;11.90;;;10.67;;
11797;SDS011;5956;51.428;6.682;2023-05-14T02:53:07;12.40;;;11.40;;
11797;SDS011;5956;51.428;6.682;2023-05-14T02:55:34;12.50;;;11.53;;
11797;SDS011;5956;51.428;6.682;2023-05-14T02:58:00;13.70;;;12.57;;
11797;SDS011;5956;51.428;6.682;2023-05-14T03:00:27;13.27;;;12.30;;
11797;SDS011;5956;51.428;6.682;2023-05-14T03:02:53;14.20;;;12.87;;
11797;SDS011;5956;51.428;6.682;2023-05-14T03:05:21;14.00;;;12.90;;
11797;SDS011;5956;51.428;6.682;2023-05-14T03:07:49;14.17;;;12.97;;
11797;SDS011;5956;51.428;6.682;2023-05-14T03:10:15;15.07;;;13.67;;
11797;SDS011;5956;51.428;6.682;2023-05-14T03:12:42;15.50;;;14.20;;
11797;SDS011;5956;51.428;6.682;2023-05-14T03:15:08;13.87;;;12.80;;
11797;SDS011;5956;51.428;6.682;2023-05-14T03:17:35;14.03;;;12.93;;
11797;SDS011;5956;51.428;6.682;2023-05-14T03:20:02;14.37;;;12.87;;
11797;SDS011;5956;51.428;6.682;2023-05-14T03:22:29;14.10;;;13.00;;
11797;SDS011;5956;51.428;6.682;2023-05-14T03:24:56;14.13;;;12.83;;
11797;SDS011;5956;51.428;6.682;2023-05-14T03:27:23;13.77;;;12.67;;
11797;SDS011;5956;51.428;6.682;2023-05-14T03:29:49;12.87;;;11.87;;
11797;SDS011;5956;51.428;6.682;2023-05-14T03:32:16;12.20;;;10.93;;
11797;SDS011;5956;51.428;6.682;2023-05-14T03:34:42;12.63;;;11.63;;
11797;SDS011;5956;51.428;6.682;2023-05-14T03:37:09;12.70;;;11.70;;
11797;SDS011;5956;51.428;6.682;2023-05-14T03:39:37;12.33;;;11.33;;
11797;SDS011;5956;51.428;6.682;2023-05-14T03:42:04;11.33;;;10.23;;
11797;SDS011;5956;51.428;6.682;2023-05-14T03:44:30;12.27;;;11.17;;
11797;SDS011;5956;51.428;6.682;2023-05-14T03:46:57;12.60;;;11.60;;
11797;SDS011;5956;51.428;6.682;2023-05-14T03:49:23;12.53;;;11.27;;
11797;SDS011;5956;51.428;6.682;2023-05-14T03:51:50;11.53;;;10.70;;
11797;SDS011;5956;51.428;6.682;2023-05-14T03:54:16;11.60;;;10.50;;
11797;SDS011;5956;51.428;6.682;2023-05-14T03:56:44;11.83;;;10.83;;
11797;SDS011;5956;51.428;6.682;2023-05-14T03:59:11;13.10;;;12.10;;
11797;SDS011;5956;51.428;6.682;2023-05-14T04:01:37;12.83;;;11.80;;
11797;SDS011;5956;51.428;6.682;2023-05-14T04:04:04;13.43;;;11.97;;
11797;SDS011;5956;51.428;6.682;2023-05-14T04:06:30;13.50;;;12.40;;
11797;SDS011;5956;51.428;6.682;2023-05-14T04:08:56;12.43;;;11.37;;
11797;SDS011;5956;51.428;6.682;2023-05-14T04:11:23;12.87;;;11.93;;
11797;SDS011;5956;51.428;6.682;2023-05-14T04:13:51;12.30;;;11.23;;
11797;SDS011;5956;51.428;6.682;2023-05-14T04:16:17;12.87;;;11.87;;
11797;SDS011;5956;51.428;6.682;2023-05-14T04:18:44;12.03;;;10.87;;
11797;SDS011;5956;51.428;6.682;2023-05-14T04:21:10;12.07;;;10.97;;
11797;SDS011;5956;51.428;6.682;2023-05-14T04:23:37;11.93;;;11.03;;
11797;SDS011;5956;51.428;6.682;2023-05-14T04:26:03;12.50;;;11.60;;
11797;SDS011;5956;51.428;6.682;2023-05-14T04:28:30;12.20;;;11.30;;
11797;SDS011;5956;51.428;6.682;2023-05-14T04:30:58;12.53;;;11.53;;
11797;SDS011;5956;51.428;6.682;2023-05-14T04:33:25;12.60;;;11.60;;
11797;SDS011;5956;51.428;6.682;2023-05-14T04:35:51;11.30;;;10.50;;
11797;SDS011;5956;51.428;6.682;2023-05-14T04:38:18;11.70;;;10.80;;
11797;SDS011;5956;51.428;6.682;2023-05-14T04:40:44;12.47;;;11.40;;
11797;SDS011;5956;51.428;6.682;2023-05-14T04:43:11;12.23;;;11.23;;
11797;SDS011;5956;51.428;6.682;2023-05-14T04:45:37;12.87;;;11.73;;
11797;SDS011;5956;51.428;6.682;2023-05-14T04:48:06;11.93;;;10.97;;
11797;SDS011;5956;51.428;6.682;2023-05-14T04:50:33;12.60;;;11.60;;
11797;SDS011;5956;51.428;6.682;2023-05-14T04:52:59;14.47;;;13.33;;
11797;SDS011;5956;51.428;6.682;2023-05-14T04:55:27;14.47;;;13.23;;
11797;SDS011;5956;51.428;6.682;2023-05-14T04:57:54;15.67;;;14.27;;
11797;SDS011;5956;51.428;6.682;2023-05-14T05:00:20;15.70;;;14.30;;
11797;SDS011;5956;51.428;6.682;2023-05-14T05:02:47;14.83;;;13.53;;
11797;SDS011;5956;51.428;6.682;2023-05-14T05:05:15;15.50;;;14.20;;
11797;SDS011;5956;51.428;6.682;2023-05-14T05:07:41;14.53;;;13.33;;
11797;SDS011;5956;51.428;6.682;2023-05-14T05:10:08;14.33;;;13.20;;
11797;SDS011;5956;51.428;6.682;2023-05-14T05:12:34;21.20;;;19.20;;
11797;SDS011;5956;51.428;6.682;2023-05-14T05:15:01;19.90;;;18.13;;
11797;SDS011;5956;51.428;6.682;2023-05-14T05:17:27;15.77;;;14.47;;
11797;SDS011;5956;51.428;6.682;2023-05-14T05:19:54;14.97;;;13.80;;
11797;SDS011;5956;51.428;6.682;2023-05-14T05:22:22;16.03;;;14.53;;
11797;SDS011;5956;51.428;6.682;2023-05-14T05:24:49;15.53;;;14.07;;
11797;SDS011;5956;51.428;6.682;2023-05-14T05:27:15;15.20;;;14.10;;
11797;SDS011;5956;51.428;6.682;2023-05-14T05:29:42;15.80;;;14.40;;
11797;SDS011;5956;51.428;6.682;2023-05-14T05:32:08;16.17;;;14.83;;
11797;SDS011;5956;51.428;6.682;2023-05-14T05:34:35;15.90;;;14.53;;
11797;SDS011;5956;51.428;6.682;2023-05-14T05:37:01;15.90;;;14.50;;
11797;SDS011;5956;51.428;6.682;2023-05-14T05:39:31;19.30;;;17.60;;
11797;SDS011;5956;51.428;6.682;2023-05-14T05:41:59;19.73;;;18.00;;
11797;SDS011;5956;51.428;6.682;2023-05-14T05:44:25;20.93;;;19.10;;
11797;SDS011;5956;51.428;6.682;2023-05-14T05:46:51;20.20;;;18.30;;
11797;SDS011;5956;51.428;6.682;2023-05-14T05:49:20;20.80;;;19.00;;
11797;SDS011;5956;51.428;6.682;2023-05-14T05:51:46;20.23;;;18.43;;
11797;SDS011;5956;51.428;6.682;2023-05-14T05:54:13;20.10;;;18.50;;
11797;SDS011;5956;51.428;6.682;2023-05-14T05:56:41;20.93;;;19.13;;
11797;SDS011;5956;51.428;6.682;2023-05-14T05:59:07;18.97;;;17.30;;
11797;SDS011;5956;51.428;6.682;2023-05-14T06:01:34;19.30;;;17.60;;
11797;SDS011;5956;51.428;6.682;2023-05-14T06:04:00;21.30;;;19.37;;
11797;SDS011;5956;51.428;6.682;2023-05-14T06:06:28;21.77;;;19.80;;
11797;SDS011;5956;51.428;6.682;2023-05-14T06:08:56;21.67;;;19.63;;
11797;SDS011;5956;51.428;6.682;2023-05-14T06:11:23;19.30;;;17.70;;
11797;SDS011;5956;51.428;6.682;2023-05-14T06:13:51;20.47;;;18.50;;
11797;SDS011;5956;51.428;6.682;2023-05-14T06:16:17;19.23;;;17.47;;
11797;SDS011;5956;51.428;6.682;2023-05-14T06:18:44;19.40;;;17.87;;
11797;SDS011;5956;51.428;6.682;2023-05-14T06:21:10;20.67;;;18.97;;
11797;SDS011;5956;51.428;6.682;2023-05-14T06:23:37;20.23;;;18.47;;
11797;SDS011;5956;51.428;6.682;2023-05-14T06:26:03;20.87;;;19.10;;
11797;SDS011;5956;51.428;6.682;2023-05-14T06:28:30;19.63;;;17.87;;
11797;SDS011;5956;51.428;6.682;2023-05-14T06:30:57;19.70;;;18.07;;
11797;SDS011;5956;51.428;6.682;2023-05-14T06:33:24;20.43;;;18.30;;
11797;SDS011;5956;51.428;6.682;2023-05-14T06:35:54;19.47;;;17.97;;
11797;SDS011;5956;51.428;6.682;2023-05-14T06:38:21;18.70;;;17.03;;
11797;SDS011;5956;51.428;6.682;2023-05-14T06:40:47;18.90;;;17.20;;
11797;SDS011;5956;51.428;6.682;2023-05-14T06:43:14;19.13;;;17.37;;
11797;SDS011;5956;51.428;6.682;2023-05-14T06:45:40;20.17;;;18.53;;
11797;SDS011;5956;51.428;6.682;2023-05-14T06:48:08;18.77;;;17.07;;
11797;SDS011;5956;51.428;6.682;2023-05-14T06:50:35;20.73;;;18.83;;
11797;SDS011;5956;51.428;6.682;2023-05-14T06:53:01;19.40;;;17.70;;
11797;SDS011;5956;51.428;6.682;2023-05-14T06:55:28;19.93;;;18.13;;
11797;SDS011;5956;51.428;6.682;2023-05-14T06:57:54;20.23;;;18.23;;
11797;SDS011;5956;51.428;6.682;2023-05-14T07:00:21;23.00;;;20.53;;
11797;SDS011;5956;51.428;6.682;2023-05-14T07:02:47;22.20;;;20.40;;
11797;SDS011;5956;51.428;6.682;2023-05-14T07:05:15;23.97;;;21.73;;
11797;SDS011;5956;51.428;6.682;2023-05-14T07:07:42;24.73;;;22.30;;
11797;SDS011;5956;51.428;6.682;2023-05-14T07:10:09;23.70;;;21.50;;
11797;SDS011;5956;51.428;6.682;2023-05-14T07:12:36;22.60;;;20.53;;
11797;SDS011;5956;51.428;6.682;2023-05-14T07:15:02;21.13;;;19.02;;
11797;SDS011;5956;51.428;6.682;2023-05-14T07:17:29;25.20;;;21.97;;
11797;SDS011;5956;51.428;6.682;2023-05-14T07:19:56;22.17;;;19.98;;
11797;SDS011;5956;51.428;6.682;2023-05-14T07:22:23;21.27;;;19.23;;
11797;SDS011;5956;51.428;6.682;2023-05-14T07:24:50;20.60;;;18.70;;
11797;SDS011;5956;51.428;6.682;2023-05-14T07:27:17;22.67;;;20.45;;
11797;SDS011;5956;51.428;6.682;2023-05-14T07:29:43;21.25;;;19.13;;
11797;SDS011;5956;51.428;6.682;2023-05-14T07:32:10;19.42;;;17.65;;
11797;SDS011;5956;51.428;6.682;2023-05-14T07:34:36;19.42;;;17.30;;
11797;SDS011;5956;51.428;6.682;2023-05-14T07:37:03;18.45;;;15.23;;
11797;SDS011;5956;51.428;6.682;2023-05-14T07:39:31;14.80;;;13.30;;
11797;SDS011;5956;51.428;6.682;2023-05-14T07:41:59;11.98;;;10.98;;
11797;SDS011;5956;51.428;6.682;2023-05-14T07:44:25;12.48;;;11.27;;
11797;SDS011;5956;51.428;6.682;2023-05-14T07:46:52;13.57;;;12.35;;
11797;SDS011;5956;51.428;6.682;2023-05-14T07:49:18;13.57;;;12.25;;
11797;SDS011;5956;51.428;6.682;2023-05-14T07:51:45;13.45;;;12.23;;
11797;SDS011;5956;51.428;6.682;2023-05-14T07:54:12;12.10;;;11.20;;
11797;SDS011;5956;51.428;6.682;2023-05-14T07:56:40;12.95;;;11.77;;
11797;SDS011;5956;51.428;6.682;2023-05-14T07:59:07;12.68;;;11.57;;
11797;SDS011;5956;51.428;6.682;2023-05-14T08:01:33;12.55;;;11.40;;
11797;SDS011;5956;51.428;6.682;2023-05-14T08:04:00;12.02;;;10.77;;
11797;SDS011;5956;51.428;6.682;2023-05-14T08:06:26;11.20;;;10.25;;
11797;SDS011;5956;51.428;6.682;2023-05-14T08:08:53;11.55;;;10.60;;
11797;SDS011;5956;51.428;6.682;2023-05-14T08:11:20;11.95;;;10.80;;
11797;SDS011;5956;51.428;6.682;2023-05-14T08:13:48;11.73;;;10.73;;
11797;SDS011;5956;51.428;6.682;2023-05-14T08:16:14;10.98;;;10.07;;
11797;SDS011;5956;51.428;6.682;2023-05-14T08:18:41;11.95;;;10.95;;
11797;SDS011;5956;51.428;6.682;2023-05-14T08:21:07;12.70;;;11.50;;
11797;SDS011;5956;51.428;6.682;2023-05-14T08:23:34;10.38;;;9.38;;
11797;SDS011;5956;51.428;6.682;2023-05-14T08:26:00;9.98;;;9.07;;
11797;SDS011;5956;51.428;6.682;2023-05-14T08:28:27;8.52;;;7.75;;
11797;SDS011;5956;51.428;6.682;2023-05-14T08:30:55;8.90;;;8.10;;
11797;SDS011;5956;51.428;6.682;2023-05-14T08:33:21;11.50;;;10.40;;
11797;SDS011;5956;51.428;6.682;2023-05-14T08:35:48;11.25;;;10.10;;
11797;SDS011;5956;51.428;6.682;2023-05-14T08:38:15;12.38;;;10.48;;
11797;SDS011;5956;51.428;6.682;2023-05-14T08:40:45;11.65;;;10.52;;
11797;SDS011;5956;51.428;6.682;2023-05-14T08:43:12;9.90;;;9.10;;
11797;SDS011;5956;51.428;6.682;2023-05-14T08:45:40;10.25;;;9.30;;
11797;SDS011;5956;51.428;6.682;2023-05-14T08:48:08;8.98;;;8.18;;
11797;SDS011;5956;51.428;6.682;2023-05-14T08:50:37;9.20;;;8.10;;
11797;SDS011;5956;51.428;6.682;2023-05-14T08:53:04;8.73;;;7.82;;
11797;SDS011;5956;51.428;6.682;2023-05-14T08:55:31;9.35;;;8.45;;
11797;SDS011;5956;51.428;6.682;2023-05-14T08:57:58;7.53;;;6.93;;
11797;SDS011;5956;51.428;6.682;2023-05-14T09:00:25;8.13;;;7.40;;
11797;SDS011;5956;51.428;6.682;2023-05-14T09:02:51;7.78;;;7.18;;
11797;SDS011;5956;51.428;6.682;2023-05-14T09:05:19;6.50;;;6.00;;
11797;SDS011;5956;51.428;6.682;2023-05-14T09:07:47;8.77;;;8.05;;
11797;SDS011;5956;51.428;6.682;2023-05-14T09:10:13;12.85;;;11.55;;
11797;SDS011;5956;51.428;6.682;2023-05-14T09:12:40;8.60;;;7.68;;
11797;SDS011;5956;51.428;6.682;2023-05-14T09:15:07;8.63;;;7.82;;
11797;SDS011;5956;51.428;6.682;2023-05-14T09:17:33;9.32;;;8.48;;
11797;SDS011;5956;51.428;6.682;2023-05-14T09:20:00;9.65;;;8.30;;
11797;SDS011;5956;51.428;6.682;2023-05-14T09:22:29;7.47;;;6.75;;
11797;SDS011;5956;51.428;6.682;2023-05-14T09:25:03;7.85;;;6.78;;
11797;SDS011;5956;51.428;6.682;2023-05-14T09:27:30;8.15;;;7.40;;
11797;SDS011;5956;51.428;6.682;2023-05-14T09:30:03;7.43;;;5.97;;
11797;SDS011;5956;51.428;6.682;2023-05-14T09:32:33;7.93;;;7.25;;
11797;SDS011;5956;51.428;6.682;2023-05-14T09:35:07;6.85;;;6.07;;
11797;SDS011;5956;51.428;6.682;2023-05-14T09:37:36;8.25;;;7.65;;
11797;SDS011;5956;51.428;6.682;2023-05-14T09:40:04;8.50;;;7.70;;
11797;SDS011;5956;51.428;6.682;2023-05-14T09:42:33;7.43;;;6.72;;
11797;SDS011;5956;51.428;6.682;2023-05-14T09:44:59;8.55;;;7.00;;
11797;SDS011;5956;51.428;6.682;2023-05-14T09:47:26;8.18;;;7.28;;
11797;SDS011;5956;51.428;6.682;2023-05-14T09:49:52;7.07;;;6.50;;
11797;SDS011;5956;51.428;6.682;2023-05-14T09:52:19;7.60;;;5.93;;
11797;SDS011;5956;51.428;6.682;2023-05-14T09:54:47;6.38;;;5.78;;
11797;SDS011;5956;51.428;6.682;2023-05-14T09:57:13;7.28;;;5.90;;
11797;SDS011;5956;51.428;6.682;2023-05-14T09:59:40;5.43;;;4.93;;
11797;SDS011;5956;51.428;6.682;2023-05-14T10:02:06;5.28;;;3.75;;
11797;SDS011;5956;51.428;6.682;2023-05-14T10:04:39;4.43;;;4.03;;
11797;SDS011;5956;51.428;6.682;2023-05-14T10:07:05;4.55;;;4.15;;
11797;SDS011;5956;51.428;6.682;2023-05-14T10:09:32;4.22;;;3.88;;
11797;SDS011;5956;51.428;6.682;2023-05-14T10:12:00;4.40;;;4.00;;
11797;SDS011;5956;51.428;6.682;2023-05-14T10:14:28;4.85;;;4.30;;
11797;SDS011;5956;51.428;6.682;2023-05-14T10:16:58;4.45;;;4.05;;
11797;SDS011;5956;51.428;6.682;2023-05-14T10:19:26;4.80;;;4.40;;
11797;SDS011;5956;51.428;6.682;2023-05-14T10:21:54;5.68;;;4.43;;
11797;SDS011;5956;51.428;6.682;2023-05-14T10:24:22;5.45;;;4.85;;
11797;SDS011;5956;51.428;6.682;2023-05-14T10:26:49;5.47;;;4.97;;
11797;SDS011;5956;51.428;6.682;2023-05-14T10:29:17;4.65;;;4.25;;
11797;SDS011;5956;51.428;6.682;2023-05-14T10:31:44;5.72;;;4.60;;
11797;SDS011;5956;51.428;6.682;2023-05-14T10:36:52;5.80;;;5.03;;
11797;SDS011;5956;51.428;6.682;2023-05-14T10:39:19;6.60;;;5.97;;
11797;SDS011;5956;51.428;6.682;2023-05-14T10:41:46;8.85;;;5.13;;
11797;SDS011;5956;51.428;6.682;2023-05-14T10:44:12;5.95;;;4.78;;
11797;SDS011;5956;51.428;6.682;2023-05-14T10:46:40;6.47;;;5.03;;
11797;SDS011;5956;51.428;6.682;2023-05-14T10:49:07;4.70;;;4.30;;
11797;SDS011;5956;51.428;6.682;2023-05-14T10:51:34;5.32;;;4.68;;
11797;SDS011;5956;51.428;6.682;2023-05-14T10:54:01;4.63;;;4.32;;
11797;SDS011;5956;51.428;6.682;2023-05-14T10:56:28;3.85;;;3.65;;
11797;SDS011;5956;51.428;6.682;2023-05-14T10:58:56;4.57;;;3.50;;
11797;SDS011;5956;51.428;6.682;2023-05-14T11:01:23;4.63;;;3.92;;
11797;SDS011;5956;51.428;6.682;2023-05-14T11:03:51;3.45;;;3.08;;
11797;SDS011;5956;51.428;6.682;2023-05-14T11:06:19;4.43;;;3.63;;
11797;SDS011;5956;51.428;6.682;2023-05-14T11:08:46;3.85;;;3.55;;
11797;SDS011;5956;51.428;6.682;2023-05-14T11:11:13;3.40;;;3.13;;
11797;SDS011;5956;51.428;6.682;2023-05-14T11:13:39;4.85;;;4.15;;
11797;SDS011;5956;51.428;6.682;2023-05-14T11:16:06;3.55;;;3.25;;
11797;SDS011;5956;51.428;6.682;2023-05-14T11:18:33;4.32;;;4.03;;
11797;SDS011;5956;51.428;6.682;2023-05-14T11:21:04;4.40;;;3.97;;
11797;SDS011;5956;51.428;6.682;2023-05-14T11:23:31;3.40;;;3.20;;
11797;SDS011;5956;51.428;6.682;2023-05-14T11:25:57;3.80;;;3.50;;
11797;SDS011;5956;51.428;6.682;2023-05-14T11:28:24;3.45;;;3.10;;
11797;SDS011;5956;51.428;6.682;2023-05-14T11:30:52;3.85;;;3.50;;
11797;SDS011;5956;51.428;6.682;2023-05-14T11:33:19;3.60;;;3.30;;
11797;SDS011;5956;51.428;6.682;2023-05-14T11:35:46;3.35;;;3.10;;
11797;SDS011;5956;51.428;6.682;2023-05-14T11:38:14;3.58;;;3.25;;
11797;SDS011;5956;51.428;6.682;2023-05-14T11:40:41;3.35;;;3.15;;
11797;SDS011;5956;51.428;6.682;2023-05-14T11:43:08;2.97;;;2.72;;
11797;SDS011;5956;51.428;6.682;2023-05-14T11:45:35;3.03;;;2.83;;
11797;SDS011;5956;51.428;6.682;2023-05-14T11:48:02;3.53;;;3.05;;
11797;SDS011;5956;51.428;6.682;2023-05-14T11:50:36;2.63;;;2.42;;
11797;SDS011;5956;51.428;6.682;2023-05-14T11:53:03;4.30;;;2.45;;
11797;SDS011;5956;51.428;6.682;2023-05-14T11:55:32;3.10;;;2.50;;
11797;SDS011;5956;51.428;6.682;2023-05-14T11:57:59;3.50;;;2.90;;
11797;SDS011;5956;51.428;6.682;2023-05-14T12:00:25;5.72;;;2.97;;
11797;SDS011;5956;51.428;6.682;2023-05-14T12:02:52;3.00;;;2.80;;
11797;SDS011;5956;51.428;6.682;2023-05-14T12:05:19;3.05;;;2.60;;
11797;SDS011;5956;51.428;6.682;2023-05-14T12:07:46;3.65;;;2.63;;
11797;SDS011;5956;51.428;6.682;2023-05-14T12:10:12;3.25;;;3.00;;
11797;SDS011;5956;51.428;6.682;2023-05-14T12:12:46;3.35;;;3.05;;
11797;SDS011;5956;51.428;6.682;2023-05-14T12:15:13;3.67;;;3.38;;
11797;SDS011;5956;51.428;6.682;2023-05-14T12:17:40;3.78;;;3.20;;
11797;SDS011;5956;51.428;6.682;2023-05-14T12:20:07;3.20;;;3.00;;
11797;SDS011;5956;51.428;6.682;2023-05-14T12:22:35;3.40;;;3.10;;
11797;SDS011;5956;51.428;6.682;2023-05-14T12:25:01;3.15;;;2.88;;
11797;SDS011;5956;51.428;6.682;2023-05-14T12:27:28;3.30;;;3.00;;
11797;SDS011;5956;51.428;6.682;2023-05-14T12:29:58;3.15;;;2.85;;
11797;SDS011;5956;51.428;6.682;2023-05-14T12:32:26;3.42;;;3.13;;
11797;SDS011;5956;51.428;6.682;2023-05-14T12:34:53;3.00;;;2.80;;
11797;SDS011;5956;51.428;6.682;2023-05-14T12:37:19;3.65;;;2.90;;
11797;SDS011;5956;51.428;6.682;2023-05-14T12:39:47;4.03;;;3.10;;
11797;SDS011;5956;51.428;6.682;2023-05-14T12:42:14;3.25;;;2.83;;
11797;SDS011;5956;51.428;6.682;2023-05-14T12:44:44;3.47;;;2.85;;
11797;SDS011;5956;51.428;6.682;2023-05-14T12:47:12;3.72;;;3.17;;
11797;SDS011;5956;51.428;6.682;2023-05-14T12:49:39;4.25;;;2.40;;
11797;SDS011;5956;51.428;6.682;2023-05-14T12:52:05;2.90;;;2.60;;
11797;SDS011;5956;51.428;6.682;2023-05-14T12:54:32;3.60;;;3.30;;
11797;SDS011;5956;51.428;6.682;2023-05-14T12:56:58;3.03;;;2.83;;
11797;SDS011;5956;51.428;6.682;2023-05-14T12:59:25;4.20;;;2.95;;
11797;SDS011;5956;51.428;6.682;2023-05-14T13:01:52;2.85;;;2.65;;
11797;SDS011;5956;51.428;6.682;2023-05-14T13:04:19;2.70;;;2.50;;
11797;SDS011;5956;51.428;6.682;2023-05-14T13:06:47;3.00;;;2.45;;
11797;SDS011;5956;51.428;6.682;2023-05-14T13:09:13;2.90;;;2.70;;
11797;SDS011;5956;51.428;6.682;2023-05-14T13:11:40;2.67;;;2.47;;
11797;SDS011;5956;51.428;6.682;2023-05-14T13:14:06;2.75;;;2.63;;
11797;SDS011;5956;51.428;6.682;2023-05-14T13:16:33;4.20;;;2.63;;
11797;SDS011;5956;51.428;6.682;2023-05-14T13:18:59;2.70;;;2.50;;
11797;SDS011;5956;51.428;6.682;2023-05-14T13:21:27;3.35;;;2.67;;
11797;SDS011;5956;51.428;6.682;2023-05-14T13:23:54;3.25;;;2.95;;
11797;SDS011;5956;51.428;6.682;2023-05-14T13:26:20;4.28;;;2.60;;
11797;SDS011;5956;51.428;6.682;2023-05-14T13:28:47;2.97;;;2.78;;
11797;SDS011;5956;51.428;6.682;2023-05-14T13:31:13;3.08;;;2.63;;
11797;SDS011;5956;51.428;6.682;2023-05-14T13:33:40;3.03;;;2.67;;
11797;SDS011;5956;51.428;6.682;2023-05-14T13:36:07;5.78;;;3.05;;
11797;SDS011;5956;51.428;6.682;2023-05-14T13:38:36;3.05;;;2.60;;
11797;SDS011;5956;51.428;6.682;2023-05-14T13:41:02;3.40;;;3.10;;
11797;SDS011;5956;51.428;6.682;2023-05-14T13:43:29;3.78;;;2.80;;
11797;SDS011;5956;51.428;6.682;2023-05-14T13:45:56;2.72;;;2.35;;
11797;SDS011;5956;51.428;6.682;2023-05-14T13:48:22;3.03;;;2.72;;
11797;SDS011;5956;51.428;6.682;2023-05-14T13:50:49;4.32;;;2.80;;
11797;SDS011;5956;51.428;6.682;2023-05-14T13:53:16;5.53;;;2.67;;
11797;SDS011;5956;51.428;6.682;2023-05-14T13:55:44;2.60;;;2.40;;
11797;SDS011;5956;51.428;6.682;2023-05-14T13:58:10;3.78;;;2.65;;
11797;SDS011;5956;51.428;6.682;2023-05-14T14:00:37;2.80;;;2.60;;
11797;SDS011;5956;51.428;6.682;2023-05-14T14:03:04;2.63;;;2.45;;
11797;SDS011;5956;51.428;6.682;2023-05-14T14:05:30;2.70;;;2.50;;
11797;SDS011;5956;51.428;6.682;2023-05-14T14:07:57;4.22;;;2.75;;
11797;SDS011;5956;51.428;6.682;2023-05-14T14:10:24;2.88;;;2.60;;
11797;SDS011;5956;51.428;6.682;2023-05-14T14:12:52;2.65;;;2.45;;
11797;SDS011;5956;51.428;6.682;2023-05-14T14:15:18;3.17;;;2.97;;
11797;SDS011;5956;51.428;6.682;2023-05-14T14:17:47;3.65;;;3.35;;
11797;SDS011;5956;51.428;6.682;2023-05-14T14:20:14;6.10;;;2.90;;
11797;SDS011;5956;51.428;6.682;2023-05-14T14:22:43;3.42;;;3.22;;
11797;SDS011;5956;51.428;6.682;2023-05-14T14:25:10;3.63;;;2.63;;
11797;SDS011;5956;51.428;6.682;2023-05-14T14:27:36;5.05;;;2.83;;
11797;SDS011;5956;51.428;6.682;2023-05-14T14:30:06;3.35;;;2.65;;
11797;SDS011;5956;51.428;6.682;2023-05-14T14:32:33;3.08;;;2.85;;
11797;SDS011;5956;51.428;6.682;2023-05-14T14:34:59;5.35;;;2.95;;
11797;SDS011;5956;51.428;6.682;2023-05-14T14:37:27;3.35;;;3.05;;
11797;SDS011;5956;51.428;6.682;2023-05-14T14:39:53;3.28;;;2.90;;
11797;SDS011;5956;51.428;6.682;2023-05-14T14:42:20;4.90;;;2.70;;
11797;SDS011;5956;51.428;6.682;2023-05-14T14:44:46;2.92;;;2.72;;
11797;SDS011;5956;51.428;6.682;2023-05-14T14:47:14;4.45;;;3.13;;